Time;durP1;ratioP1;P1;durP2;ratioP2;P2;SDS_P1;SDS_P2;PMS_P1;PMS_P2;Temp;Humidity;BMP_temperature;BMP_pressure;BME280_temperature;BME280_humidity;BME280_pressure;Samples;Min_cycle;Max_cycle;Signal;HPM_P1;HPM_P2
2023/09/06 00:15:29;;;;;;;13.00;5.63;;;15.00;99.90;;;;;;1909827;73;27109;-88
2023/09/06 00:31:47;;;;;;;14.23;4.63;;;15.60;99.90;;;;;;1937181;72;27171;-88
2023/09/06 01:06:13;;;;;;;10.33;3.43;;;15.90;99.90;;;;;;1914156;74;26843;-90
2023/09/06 01:13:22;;;;;;;5.80;2.70;;;15.90;99.90;;;;;;1935623;72;26092;-90
2023/09/06 01:16:12;;;;;;;8.13;2.73;;;15.80;99.90;;;;;;1900417;75;25176;-90
2023/09/06 01:19:02;;;;;;;9.40;2.70;;;15.70;99.90;;;;;;1902460;75;25386;-90
2023/09/06 01:27:12;;;;;;;3.40;1.70;;;15.60;99.90;;;;;;1964948;71;26842;-90
2023/09/06 01:32:48;;;;;;;4.40;1.47;;;15.40;99.90;;;;;;1965781;72;26881;-90
2023/09/06 01:35:36;;;;;;;3.23;1.60;;;15.40;99.90;;;;;;1939980;73;25322;-90
2023/09/06 01:38:25;;;;;;;4.43;1.70;;;15.30;99.90;;;;;;1877583;75;25769;-90
2023/09/06 01:41:14;;;;;;;2.50;1.33;;;15.20;99.90;;;;;;1847826;76;25243;-90
2023/09/06 01:44:03;;;;;;;3.90;1.70;;;15.10;99.90;;;;;;1908273;73;25216;-90
2023/09/06 01:46:52;;;;;;;7.50;1.60;;;15.10;99.90;;;;;;1908614;73;25301;-90
2023/09/06 01:49:41;;;;;;;3.33;1.53;;;15.10;99.90;;;;;;1899010;73;25277;-90
2023/09/06 01:52:30;;;;;;;7.63;1.50;;;15.00;99.90;;;;;;1897410;73;25735;-90
2023/09/06 01:55:18;;;;;;;5.10;1.40;;;15.00;99.90;;;;;;1911755;73;25191;-90
2023/09/06 01:58:07;;;;;;;1.97;1.37;;;14.90;99.90;;;;;;1889014;73;25284;-90
2023/09/06 02:00:58;;;;;;;3.23;1.60;;;14.90;99.90;;;;;;1898774;73;25263;-90
2023/09/06 02:03:47;;;;;;;6.97;1.50;;;14.90;99.90;;;;;;1911812;73;25250;-90
2023/09/06 02:06:36;;;;;;;2.70;1.37;;;14.80;99.90;;;;;;1910502;73;25326;-90
2023/09/06 02:12:20;;;;;;;4.03;1.60;;;14.60;99.90;;;;;;1947624;72;27012;-90
2023/09/06 02:15:10;;;;;;;3.17;1.43;;;14.60;99.90;;;;;;1935196;73;25717;-90
2023/09/06 02:21:25;;;;;;;2.00;1.43;;;14.50;99.90;;;;;;1981981;71;28698;-90
2023/09/06 02:24:17;;;;;;;3.03;1.40;;;14.40;99.90;;;;;;1966552;72;25328;-90
2023/09/06 02:29:58;;;;;;;3.20;1.30;;;14.30;99.90;;;;;;1965699;72;26973;-90
2023/09/06 02:32:47;;;;;;;3.90;1.20;;;14.20;99.90;;;;;;1941701;72;25567;-90
2023/09/06 02:35:40;;;;;;;4.07;1.40;;;14.10;99.90;;;;;;1952946;72;25209;-90
2023/09/06 02:38:26;;;;;;;5.63;1.33;;;14.10;99.90;;;;;;1949415;73;25284;-90
2023/09/06 02:41:15;;;;;;;5.13;1.27;;;14.10;99.90;;;;;;1953640;72;25207;-90
2023/09/06 02:44:04;;;;;;;2.90;1.57;;;14.00;99.90;;;;;;1928333;73;25246;-91
2023/09/06 02:46:53;;;;;;;2.13;1.33;;;14.00;99.90;;;;;;1942950;73;25644;-90
2023/09/06 02:49:43;;;;;;;4.93;1.90;;;13.90;99.90;;;;;;1934864;73;25248;-90
2023/09/06 02:52:35;;;;;;;3.70;1.70;;;14.00;99.90;;;;;;1939964;73;25953;-90
2023/09/06 02:55:24;;;;;;;4.43;1.90;;;14.00;99.90;;;;;;1927210;73;25272;-91
2023/09/06 02:58:12;;;;;;;1.60;1.50;;;13.90;99.90;;;;;;1947109;73;25299;-91
2023/09/06 03:01:06;;;;;;;3.33;1.73;;;13.80;99.90;;;;;;1948151;73;25290;-91
2023/09/06 03:40:34;;;;;;;2.27;1.60;;;13.50;99.90;;;;;;1990299;71;26341;-90
2023/09/06 03:59:41;;;;;;;2.07;1.77;;;13.50;99.90;;;;;;1929147;73;26793;-89
2023/09/06 04:05:57;;;;;;;3.53;1.70;;;13.30;99.90;;;;;;2026511;70;27709;-90
2023/09/06 04:08:46;;;;;;;4.33;1.70;;;13.20;99.90;;;;;;1998784;71;25809;-90
2023/09/06 04:11:35;;;;;;;4.47;1.70;;;13.20;99.90;;;;;;1991835;71;25222;-90
2023/09/06 04:14:23;;;;;;;2.50;1.63;;;13.20;99.90;;;;;;1979754;71;25211;-91
2023/09/06 04:17:13;;;;;;;3.90;1.87;;;13.20;99.90;;;;;;1976861;72;25264;-90
2023/09/06 04:20:17;;;;;;;5.67;2.10;;;13.20;99.90;;;;;;1973219;71;25163;-90
2023/09/06 04:22:52;;;;;;;2.37;1.70;;;13.10;99.90;;;;;;1979189;71;25201;-90
2023/09/06 04:25:42;;;;;;;10.17;2.20;;;13.10;99.90;;;;;;1974218;72;25205;-91
2023/09/06 04:28:30;;;;;;;4.90;1.80;;;13.00;99.90;;;;;;1979614;71;25310;-91
2023/09/06 04:31:19;;;;;;;5.70;2.10;;;13.00;99.90;;;;;;1975835;71;26421;-90
2023/09/06 04:34:08;;;;;;;6.53;1.90;;;12.90;99.90;;;;;;1975136;71;25286;-91
2023/09/06 04:39:53;;;;;;;10.27;1.67;;;12.80;99.90;;;;;;1964223;72;26919;-90
2023/09/06 05:25:50;;;;;;;4.03;1.40;;;12.90;99.90;;;;;;1936787;73;27058;-89
2023/09/06 05:42:48;;;;;;;7.20;1.27;;;13.40;99.90;;;;;;1944201;72;27065;-90
2023/09/06 06:37:08;;;;;;;5.93;1.20;;;14.60;99.90;;;;;;1963119;71;26353;-90
2023/09/06 06:39:58;;;;;;;2.70;0.90;;;14.50;99.90;;;;;;1979179;72;25678;-90
2023/09/06 06:42:47;;;;;;;6.73;1.03;;;14.50;99.90;;;;;;1972105;71;25236;-90
2023/09/06 06:45:36;;;;;;;4.80;1.10;;;14.60;99.90;;;;;;1951465;72;25273;-88
2023/09/06 06:48:25;;;;;;;5.83;1.00;;;14.60;99.90;;;;;;1901128;75;25350;-90
2023/09/06 06:51:13;;;;;;;2.07;1.00;;;14.60;99.90;;;;;;1901666;75;25207;-90
2023/09/06 06:54:02;;;;;;;1.07;0.80;;;14.40;99.90;;;;;;1868476;75;25188;-90
2023/09/06 07:10:49;;;;;;;1.83;1.10;;;14.50;99.90;;;;;;2029488;69;26732;-89
2023/09/06 07:16:28;;;;;;;7.37;1.20;;;14.60;99.90;;;;;;1945110;72;26948;-89
2023/09/06 07:19:16;;;;;;;6.63;1.10;;;14.70;99.90;;;;;;1937252;73;25206;-89
2023/09/06 07:36:01;;;;;;;2.93;1.00;;;14.70;99.90;;;;;;1869460;74;27226;-90
2023/09/06 07:52:17;;;;;;;2.87;1.00;;;15.30;99.90;;;;;;1853325;75;27148;-88
2023/09/06 07:57:58;;;;;;;1.47;0.80;;;14.70;99.90;;;;;;1951809;72;26993;-90
2023/09/06 08:00:49;;;;;;;4.30;1.60;;;14.80;99.90;;;;;;1901578;73;25219;-90
2023/09/06 08:03:38;;;;;;;4.67;1.07;;;15.00;99.90;;;;;;1946828;73;25218;-90
2023/09/06 08:06:28;;;;;;;1.93;1.00;;;14.90;99.90;;;;;;1937447;73;25290;-90
2023/09/06 08:09:16;;;;;;;3.17;1.00;;;14.90;99.90;;;;;;1936470;73;25273;-90
2023/09/06 08:12:06;;;;;;;2.27;0.80;;;14.80;99.90;;;;;;1934109;73;25831;-91
2023/09/06 08:14:55;;;;;;;2.57;1.20;;;14.90;99.90;;;;;;1937523;73;25753;-91
2023/09/06 08:17:47;;;;;;;2.57;1.10;;;15.00;99.90;;;;;;1939520;73;25336;-91
2023/09/06 08:20:34;;;;;;;2.33;0.97;;;14.90;99.90;;;;;;1940282;73;25341;-91
2023/09/06 08:23:23;;;;;;;2.17;1.00;;;15.00;99.90;;;;;;1940955;73;25635;-91
2023/09/06 08:26:11;;;;;;;3.77;1.20;;;15.00;99.90;;;;;;1951585;72;25686;-91
2023/09/06 08:28:59;;;;;;;2.63;1.10;;;15.20;99.90;;;;;;1914237;73;25231;-91
2023/09/06 08:31:48;;;;;;;3.77;1.10;;;15.30;99.90;;;;;;1882379;75;25256;-91
2023/09/06 08:34:37;;;;;;;1.37;0.60;;;15.40;99.90;;;;;;1894926;75;25179;-90
2023/09/06 08:37:25;;;;;;;3.00;1.03;;;15.30;99.90;;;;;;1900773;75;25234;-91
2023/09/06 08:46:09;;;;;;;4.50;1.40;;;15.80;99.90;;;;;;1998860;71;27621;-89
2023/09/06 08:48:59;;;;;;;5.90;1.10;;;15.90;99.90;;;;;;1996654;70;25689;-90
2023/09/06 08:51:49;;;;;;;4.90;0.90;;;15.90;99.90;;;;;;1997941;70;25287;-91
2023/09/06 08:54:38;;;;;;;4.53;1.00;;;15.70;99.90;;;;;;2000359;70;25201;-91
2023/09/06 09:11:26;;;;;;;4.43;0.97;;;16.10;99.90;;;;;;1844278;74;26398;-89
2023/09/06 09:17:56;;;;;;;5.40;1.00;;;17.00;99.90;;;;;;1983564;71;27359;-90
2023/09/06 09:20:46;;;;;;;1.00;0.90;;;17.00;99.90;;;;;;1953313;72;25224;-89
2023/09/06 09:23:36;;;;;;;6.87;1.00;;;16.90;99.90;;;;;;2046391;69;25273;-89
2023/09/06 09:26:24;;;;;;;2.50;1.20;;;17.00;99.90;;;;;;2000035;71;25222;-89
2023/09/06 09:29:13;;;;;;;3.47;1.10;;;16.90;99.90;;;;;;2053886;69;25228;-89
2023/09/06 09:48:44;;;;;;;4.10;1.03;;;17.10;99.90;;;;;;1948938;72;26538;-90
2023/09/06 09:51:37;;;;;;;3.70;1.10;;;17.10;99.90;;;;;;1932450;73;25240;-90
2023/09/06 09:54:28;;;;;;;7.77;1.20;;;17.10;99.90;;;;;;1935109;73;25301;-90
2023/09/06 09:57:21;;;;;;;2.93;1.27;;;17.30;99.90;;;;;;1919129;73;25206;-90
2023/09/06 10:00:12;;;;;;;3.97;0.90;;;17.40;99.90;;;;;;1923918;73;25753;-90
2023/09/06 10:03:02;;;;;;;3.60;1.07;;;17.50;99.90;;;;;;1928235;73;25215;-90
2023/09/06 10:05:52;;;;;;;6.13;1.00;;;17.70;99.90;;;;;;1924856;73;25373;-91
2023/09/06 10:08:43;;;;;;;3.30;1.00;;;17.80;99.90;;;;;;1927489;73;25243;-91
2023/09/06 10:11:35;;;;;;;2.77;1.10;;;17.70;99.90;;;;;;1942766;73;25318;-90
2023/09/06 10:14:26;;;;;;;2.37;1.20;;;17.90;99.90;;;;;;1919816;73;25669;-91
2023/09/06 10:31:08;;;;;;;1.27;1.00;;;18.20;99.90;;;;;;1916451;74;27156;-90
2023/09/06 11:29:45;;;;;;;2.13;1.20;;;19.10;99.90;;;;;;1857736;76;27048;-90
2023/09/06 11:49:56;;;;;;;4.20;1.10;;;19.70;99.90;;;;;;2003375;71;27054;-90
2023/09/06 11:52:49;;;;;;;4.93;1.27;;;19.60;99.90;;;;;;1981185;72;25710;-90
2023/09/06 12:10:06;;;;;;;1.97;1.30;;;19.70;99.90;;;;;;1938041;71;26870;-90
2023/09/06 12:15:39;;;;;;;5.97;1.20;;;19.70;99.90;;;;;;1920526;72;27020;-90
2023/09/06 12:18:27;;;;;;;5.07;1.30;;;19.70;99.90;;;;;;1897967;74;25183;-90
2023/09/06 12:21:16;;;;;;;5.60;1.60;;;19.80;99.90;;;;;;1892481;75;25712;-90
2023/09/06 12:24:05;;;;;;;3.00;1.20;;;19.80;99.90;;;;;;1905070;75;26535;-90
2023/09/06 12:26:54;;;;;;;1.83;1.30;;;19.90;99.90;;;;;;1896604;75;25310;-90
2023/09/06 12:29:44;;;;;;;5.87;1.10;;;20.00;99.90;;;;;;1890519;74;25303;-91
2023/09/06 12:32:34;;;;;;;2.77;1.30;;;20.10;99.90;;;;;;1838364;77;25274;-91
2023/09/06 12:35:23;;;;;;;2.33;1.40;;;20.00;99.90;;;;;;1896329;75;25816;-91
2023/09/06 12:38:11;;;;;;;2.73;1.40;;;20.20;99.90;;;;;;1888818;75;25644;-91
2023/09/06 13:09:03;;;;;;;6.43;1.50;;;20.30;99.90;;;;;;1927894;73;26989;-90
2023/09/06 13:19:59;;;;;;;3.93;1.30;;;20.30;99.90;;;;;;1972704;72;26397;-90
2023/09/06 13:37:01;;;;;;;1.57;1.43;;;20.40;99.90;;;;;;1960631;71;27098;-90
2023/09/06 13:39:50;;;;;;;3.07;1.67;;;20.40;99.90;;;;;;1932299;73;25771;-90
2023/09/06 13:42:39;;;;;;;1.47;1.37;;;20.40;99.90;;;;;;1997597;70;25307;-91
2023/09/06 13:45:28;;;;;;;3.30;1.57;;;20.50;99.90;;;;;;2017233;70;25257;-90
2023/09/06 13:48:18;;;;;;;3.53;1.43;;;20.70;99.90;;;;;;2030172;70;25139;-90
2023/09/06 13:51:07;;;;;;;2.77;1.60;;;20.80;99.90;;;;;;2000536;70;25178;-90
2023/09/06 13:53:56;;;;;;;2.87;1.50;;;20.70;99.90;;;;;;2002982;70;25208;-91
2023/09/06 13:56:49;;;;;;;3.23;1.50;;;20.50;99.90;;;;;;2003811;70;25208;-90
2023/09/06 13:59:36;;;;;;;3.20;1.40;;;20.50;99.90;;;;;;1994871;70;25149;-91
2023/09/06 14:06:15;;;;;;;1.40;1.30;;;20.70;99.90;;;;;;1988739;71;27362;-90
2023/09/06 14:09:07;;;;;;;2.03;1.40;;;20.80;99.90;;;;;;1960361;72;25297;-90
2023/09/06 14:11:57;;;;;;;4.00;1.67;;;20.80;99.90;;;;;;2046651;69;25641;-90
2023/09/06 14:14:46;;;;;;;3.10;1.53;;;20.80;99.90;;;;;;2046061;69;25184;-90
2023/09/06 14:17:36;;;;;;;2.73;1.30;;;20.60;99.90;;;;;;2054934;69;25696;-91
2023/09/06 14:20:26;;;;;;;2.10;1.53;;;20.50;99.90;;;;;;2032350;69;25193;-91
2023/09/06 14:27:34;;;;;;;4.13;1.60;;;20.40;99.90;;;;;;1978852;72;27969;-90
2023/09/06 14:30:23;;;;;;;2.97;1.90;;;20.40;99.90;;;;;;1935506;73;25317;-89
2023/09/06 14:33:13;;;;;;;5.53;1.73;;;20.50;99.90;;;;;;1946208;72;25181;-89
2023/09/06 14:36:03;;;;;;;2.43;1.53;;;20.40;99.90;;;;;;1946644;73;25220;-90
2023/09/06 14:38:54;;;;;;;3.20;1.60;;;20.50;99.90;;;;;;1928957;73;25248;-90
2023/09/06 14:41:42;;;;;;;2.33;1.60;;;20.60;99.90;;;;;;1963200;71;25661;-90
2023/09/06 14:44:34;;;;;;;3.37;1.87;;;20.60;99.90;;;;;;1962791;72;25327;-90
2023/09/06 15:25:05;;;;;;;2.50;1.50;;;20.40;99.90;;;;;;2017070;69;28577;-90
2023/09/06 15:44:29;;;;;;;4.27;1.60;;;20.20;99.90;;;;;;1977422;71;27157;-90
2023/09/06 15:47:19;;;;;;;4.87;1.90;;;20.10;99.90;;;;;;1955933;72;25255;-91
2023/09/06 16:31:42;;;;;;;2.60;1.47;;;19.60;99.90;;;;;;1826742;77;27716;-90
2023/09/06 18:09:07;;;;;;;4.50;1.70;;;18.30;99.90;;;;;;1911965;74;27065;-90
2023/09/06 18:11:52;;;;;;;1.97;1.73;;;18.20;99.90;;;;;;1854981;76;25313;-90
2023/09/06 18:14:42;;;;;;;5.20;2.00;;;18.10;99.90;;;;;;1862810;76;25751;-90
2023/09/06 18:18:01;;;;;;;3.67;1.97;;;18.20;99.90;;;;;;1869159;76;25903;-88
2023/09/06 18:52:51;;;;;;;6.83;2.23;;;18.00;99.90;;;;;;1928023;73;27519;-93
2023/09/06 19:10:01;;;;;;;4.13;2.10;;;17.70;99.90;;;;;;1895423;74;27144;-90
2023/09/06 19:44:52;;;;;;;6.47;2.63;;;17.50;99.90;;;;;;1959541;72;27078;-93
2023/09/06 19:47:44;;;;;;;7.40;2.80;;;17.60;99.90;;;;;;1944153;72;25211;-93
2023/09/06 19:50:33;;;;;;;5.57;2.77;;;17.50;99.90;;;;;;1969971;72;25173;-92
2023/09/06 19:53:22;;;;;;;3.60;2.20;;;17.50;99.90;;;;;;1959909;72;25203;-92
2023/09/06 19:56:16;;;;;;;9.47;2.70;;;17.50;99.90;;;;;;1973739;72;25173;-93
2023/09/06 19:59:06;;;;;;;3.90;2.70;;;17.60;99.90;;;;;;1957140;73;25223;-92
2023/09/06 20:01:55;;;;;;;5.30;2.60;;;17.40;99.90;;;;;;1937079;73;25221;-93
2023/09/06 20:04:44;;;;;;;6.47;2.60;;;17.40;99.90;;;;;;1960352;72;25214;-93
2023/09/06 20:07:33;;;;;;;3.63;2.60;;;17.40;99.90;;;;;;1954916;73;25152;-93
2023/09/06 20:10:23;;;;;;;5.10;2.90;;;17.40;99.90;;;;;;1961775;72;25197;-92
2023/09/06 20:13:11;;;;;;;8.63;2.80;;;17.30;99.90;;;;;;1958090;72;25158;-92
2023/09/06 20:56:25;;;;;;;3.60;2.43;;;16.90;99.90;;;;;;1981665;71;27052;-90
2023/09/06 21:02:29;;;;;;;6.67;2.70;;;16.90;99.90;;;;;;1909794;74;27716;-89
2023/09/06 21:05:18;;;;;;;6.37;3.00;;;16.80;99.90;;;;;;1895261;75;25264;-90
2023/09/06 21:08:07;;;;;;;6.97;3.30;;;16.90;99.90;;;;;;1883252;75;25317;-90
2023/09/06 21:10:55;;;;;;;8.30;2.73;;;16.80;99.90;;;;;;1885074;75;25287;-90
2023/09/06 21:13:44;;;;;;;8.13;3.27;;;16.90;99.90;;;;;;1898369;75;25184;-90
2023/09/06 21:16:32;;;;;;;7.47;3.00;;;17.00;99.90;;;;;;1881116;75;25286;-90
2023/09/06 21:19:37;;;;;;;8.60;3.20;;;17.00;99.90;;;;;;1894715;75;25270;-90
2023/09/06 21:22:26;;;;;;;5.83;2.80;;;16.90;99.90;;;;;;1887569;75;25220;-90
2023/09/06 21:25:14;;;;;;;3.47;2.53;;;16.90;99.90;;;;;;1895375;75;25330;-90
2023/09/06 21:28:03;;;;;;;5.83;2.60;;;16.80;99.90;;;;;;1900155;75;25281;-90
2023/09/06 21:30:52;;;;;;;10.43;3.07;;;16.70;99.90;;;;;;1901587;75;25187;-89
2023/09/06 21:33:42;;;;;;;4.13;3.07;;;16.50;99.90;;;;;;1896921;75;25254;-90
2023/09/06 21:36:30;;;;;;;6.10;2.50;;;16.40;99.90;;;;;;1902677;75;25287;-90
